sensor_id;sensor_type;location;lat;lon;timestamp;temperature;humidity
19862;DHT22;10093;48.148;8.542;2023-03-01T00:01:13;-6.20;99.90
19862;DHT22;10093;48.148;8.542;2023-03-01T00:03:39;-6.20;99.90
19862;DHT22;10093;48.148;8.542;2023-03-01T00:06:05;-6.30;99.90
19862;DHT22;10093;48.148;8.542;2023-03-01T00:08:32;-6.20;99.90
19862;DHT22;10093;48.148;8.542;2023-03-01T00:11:16;-6.10;99.90
19862;DHT22;10093;48.148;8.542;2023-03-01T00:13:43;-6.00;99.90
19862;DHT22;10093;48.148;8.542;2023-03-01T00:16:19;-6.00;99.90
19862;DHT22;10093;48.148;8.542;2023-03-01T00:18:45;-5.90;99.90
19862;DHT22;10093;48.148;8.542;2023-03-01T00:21:12;-6.10;99.90
19862;DHT22;10093;48.148;8.542;2023-03-01T00:23:38;-6.30;99.90
19862;DHT22;10093;48.148;8.542;2023-03-01T00:26:13;-6.40;99.90
19862;DHT22;10093;48.148;8.542;2023-03-01T00:28:39;-6.40;99.90
19862;DHT22;10093;48.148;8.542;2023-03-01T00:31:10;-6.60;99.90
19862;DHT22;10093;48.148;8.542;2023-03-01T00:33:36;-6.70;99.90
19862;DHT22;10093;48.148;8.542;2023-03-01T00:36:02;-6.40;99.90
19862;DHT22;10093;48.148;8.542;2023-03-01T00:38:29;-6.30;99.90
19862;DHT22;10093;48.148;8.542;2023-03-01T00:40:55;-6.40;99.90
19862;DHT22;10093;48.148;8.542;2023-03-01T00:43:20;-6.30;99.90
19862;DHT22;10093;48.148;8.542;2023-03-01T00:45:46;-6.20;99.90
19862;DHT22;10093;48.148;8.542;2023-03-01T00:48:13;-6.60;99.90
19862;DHT22;10093;48.148;8.542;2023-03-01T00:50:38;-6.70;99.90
19862;DHT22;10093;48.148;8.542;2023-03-01T00:53:04;-6.60;99.90
19862;DHT22;10093;48.148;8.542;2023-03-01T00:55:30;-6.40;99.90
19862;DHT22;10093;48.148;8.542;2023-03-01T00:57:56;-6.40;99.90
19862;DHT22;10093;48.148;8.542;2023-03-01T01:00:21;-6.40;99.90
19862;DHT22;10093;48.148;8.542;2023-03-01T01:02:48;-6.40;99.90
19862;DHT22;10093;48.148;8.542;2023-03-01T01:05:14;-6.30;99.90
19862;DHT22;10093;48.148;8.542;2023-03-01T01:07:40;-6.30;99.90
19862;DHT22;10093;48.148;8.542;2023-03-01T01:10:06;-6.00;99.90
19862;DHT22;10093;48.148;8.542;2023-03-01T01:12:32;-6.10;99.90
19862;DHT22;10093;48.148;8.542;2023-03-01T01:14:58;-5.90;99.90
19862;DHT22;10093;48.148;8.542;2023-03-01T01:17:24;-5.80;99.90
19862;DHT22;10093;48.148;8.542;2023-03-01T01:19:49;-5.70;99.90
19862;DHT22;10093;48.148;8.542;2023-03-01T01:22:15;-5.70;99.90
19862;DHT22;10093;48.148;8.542;2023-03-01T01:24:40;-5.60;99.90
19862;DHT22;10093;48.148;8.542;2023-03-01T01:27:06;-5.50;99.90
19862;DHT22;10093;48.148;8.542;2023-03-01T01:29:32;-5.50;99.90
19862;DHT22;10093;48.148;8.542;2023-03-01T01:31:58;-5.60;99.90
19862;DHT22;10093;48.148;8.542;2023-03-01T01:34:24;-5.60;99.90
19862;DHT22;10093;48.148;8.542;2023-03-01T01:36:53;-5.60;99.90
19862;DHT22;10093;48.148;8.542;2023-03-01T01:39:20;-5.80;99.90
19862;DHT22;10093;48.148;8.542;2023-03-01T01:41:46;-5.80;99.90
19862;DHT22;10093;48.148;8.542;2023-03-01T01:44:22;-5.70;99.90
19862;DHT22;10093;48.148;8.542;2023-03-01T01:47:20;-5.80;99.90
19862;DHT22;10093;48.148;8.542;2023-03-01T01:49:53;-5.80;99.90
19862;DHT22;10093;48.148;8.542;2023-03-01T01:52:23;-5.70;99.90
19862;DHT22;10093;48.148;8.542;2023-03-01T01:55:12;-5.60;99.90
19862;DHT22;10093;48.148;8.542;2023-03-01T01:57:49;-5.60;99.90
19862;DHT22;10093;48.148;8.542;2023-03-01T02:00:19;-5.40;99.90
19862;DHT22;10093;48.148;8.542;2023-03-01T02:02:47;-5.30;99.90
19862;DHT22;10093;48.148;8.542;2023-03-01T02:05:35;-5.40;99.90
19862;DHT22;10093;48.148;8.542;2023-03-01T02:08:02;-5.40;99.90
19862;DHT22;10093;48.148;8.542;2023-03-01T02:10:29;-5.40;99.90
19862;DHT22;10093;48.148;8.542;2023-03-01T02:12:55;-5.20;99.90
19862;DHT22;10093;48.148;8.542;2023-03-01T02:15:23;-5.20;99.90
19862;DHT22;10093;48.148;8.542;2023-03-01T02:17:49;-5.00;99.90
19862;DHT22;10093;48.148;8.542;2023-03-01T02:22:52;-4.90;99.90
19862;DHT22;10093;48.148;8.542;2023-03-01T02:25:36;-4.90;99.90
19862;DHT22;10093;48.148;8.542;2023-03-01T02:30:42;-4.90;99.90
19862;DHT22;10093;48.148;8.542;2023-03-01T02:33:28;-4.90;99.90
19862;DHT22;10093;48.148;8.542;2023-03-01T02:36:00;-4.60;99.90
19862;DHT22;10093;48.148;8.542;2023-03-01T02:38:27;-4.70;99.90
19862;DHT22;10093;48.148;8.542;2023-03-01T02:40:54;-4.70;99.90
19862;DHT22;10093;48.148;8.542;2023-03-01T02:43:25;-4.80;99.90
19862;DHT22;10093;48.148;8.542;2023-03-01T02:45:52;-4.50;99.90
19862;DHT22;10093;48.148;8.542;2023-03-01T02:48:19;-4.60;99.90
19862;DHT22;10093;48.148;8.542;2023-03-01T02:53:55;-4.80;99.90
19862;DHT22;10093;48.148;8.542;2023-03-01T02:56:22;-4.50;99.90
19862;DHT22;10093;48.148;8.542;2023-03-01T02:58:48;-4.50;99.90
19862;DHT22;10093;48.148;8.542;2023-03-01T03:01:18;-4.50;99.90
19862;DHT22;10093;48.148;8.542;2023-03-01T03:03:44;-4.30;99.90
19862;DHT22;10093;48.148;8.542;2023-03-01T03:06:10;-4.10;99.90
19862;DHT22;10093;48.148;8.542;2023-03-01T03:08:35;-4.00;99.90
19862;DHT22;10093;48.148;8.542;2023-03-01T03:11:02;-4.10;99.90
19862;DHT22;10093;48.148;8.542;2023-03-01T03:13:27;-4.10;99.90
19862;DHT22;10093;48.148;8.542;2023-03-01T03:15:55;-4.00;99.90
19862;DHT22;10093;48.148;8.542;2023-03-01T03:18:21;-4.00;99.90
19862;DHT22;10093;48.148;8.542;2023-03-01T03:20:48;-3.90;99.90
19862;DHT22;10093;48.148;8.542;2023-03-01T03:23:21;-3.70;99.90
19862;DHT22;10093;48.148;8.542;2023-03-01T03:25:50;-3.60;99.90
19862;DHT22;10093;48.148;8.542;2023-03-01T03:28:16;-3.50;99.90
19862;DHT22;10093;48.148;8.542;2023-03-01T03:30:42;-3.30;99.90
19862;DHT22;10093;48.148;8.542;2023-03-01T03:33:10;-3.20;99.90
19862;DHT22;10093;48.148;8.542;2023-03-01T03:35:48;-3.20;99.90
19862;DHT22;10093;48.148;8.542;2023-03-01T03:38:15;-3.10;99.90
19862;DHT22;10093;48.148;8.542;2023-03-01T03:40:45;-3.10;99.90
19862;DHT22;10093;48.148;8.542;2023-03-01T03:43:17;-3.10;99.90
19862;DHT22;10093;48.148;8.542;2023-03-01T03:45:44;-3.00;99.90
19862;DHT22;10093;48.148;8.542;2023-03-01T03:48:10;-2.90;99.90
19862;DHT22;10093;48.148;8.542;2023-03-01T03:50:36;-2.90;99.90
19862;DHT22;10093;48.148;8.542;2023-03-01T03:53:05;-2.90;99.90
19862;DHT22;10093;48.148;8.542;2023-03-01T03:55:31;-3.00;99.90
19862;DHT22;10093;48.148;8.542;2023-03-01T03:58:00;-2.90;99.90
19862;DHT22;10093;48.148;8.542;2023-03-01T04:00:36;-2.90;99.90
19862;DHT22;10093;48.148;8.542;2023-03-01T04:03:03;-3.00;99.90
19862;DHT22;10093;48.148;8.542;2023-03-01T04:05:29;-3.00;99.90
19862;DHT22;10093;48.148;8.542;2023-03-01T04:07:55;-3.00;99.90
19862;DHT22;10093;48.148;8.542;2023-03-01T04:10:40;-3.00;99.90
19862;DHT22;10093;48.148;8.542;2023-03-01T04:13:08;-2.80;99.90
19862;DHT22;10093;48.148;8.542;2023-03-01T04:15:35;-2.90;99.90
19862;DHT22;10093;48.148;8.542;2023-03-01T04:18:01;-2.90;99.90
19862;DHT22;10093;48.148;8.542;2023-03-01T04:20:29;-2.90;99.90
19862;DHT22;10093;48.148;8.542;2023-03-01T04:23:05;-3.00;99.90
19862;DHT22;10093;48.148;8.542;2023-03-01T04:25:55;-2.80;99.90
19862;DHT22;10093;48.148;8.542;2023-03-01T04:28:27;-2.90;99.90
19862;DHT22;10093;48.148;8.542;2023-03-01T04:30:55;-2.80;99.90
19862;DHT22;10093;48.148;8.542;2023-03-01T04:33:22;-2.90;99.90
19862;DHT22;10093;48.148;8.542;2023-03-01T04:35:48;-2.80;99.90
19862;DHT22;10093;48.148;8.542;2023-03-01T04:38:15;-2.80;99.90
19862;DHT22;10093;48.148;8.542;2023-03-01T04:40:41;-2.80;99.90
19862;DHT22;10093;48.148;8.542;2023-03-01T04:43:09;-2.80;99.90
19862;DHT22;10093;48.148;8.542;2023-03-01T04:45:35;-2.70;99.90
19862;DHT22;10093;48.148;8.542;2023-03-01T04:48:02;-2.70;99.90
19862;DHT22;10093;48.148;8.542;2023-03-01T04:50:28;-2.60;99.90
19862;DHT22;10093;48.148;8.542;2023-03-01T04:52:54;-2.60;99.90
19862;DHT22;10093;48.148;8.542;2023-03-01T04:55:19;-2.70;99.90
19862;DHT22;10093;48.148;8.542;2023-03-01T04:57:45;-2.60;99.90
19862;DHT22;10093;48.148;8.542;2023-03-01T05:00:12;-2.70;99.90
19862;DHT22;10093;48.148;8.542;2023-03-01T05:02:59;-2.70;99.90
19862;DHT22;10093;48.148;8.542;2023-03-01T05:05:28;-2.80;99.90
19862;DHT22;10093;48.148;8.542;2023-03-01T05:07:59;-2.50;99.90
19862;DHT22;10093;48.148;8.542;2023-03-01T05:10:26;-2.40;99.90
19862;DHT22;10093;48.148;8.542;2023-03-01T05:12:54;-2.30;99.90
19862;DHT22;10093;48.148;8.542;2023-03-01T05:15:20;-2.60;99.90
19862;DHT22;10093;48.148;8.542;2023-03-01T05:17:48;-2.60;99.90
19862;DHT22;10093;48.148;8.542;2023-03-01T05:20:13;-2.60;99.90
19862;DHT22;10093;48.148;8.542;2023-03-01T05:22:39;-2.60;99.90
19862;DHT22;10093;48.148;8.542;2023-03-01T05:25:05;-2.60;99.90
19862;DHT22;10093;48.148;8.542;2023-03-01T05:27:32;-2.70;99.90
19862;DHT22;10093;48.148;8.542;2023-03-01T05:29:58;-2.60;99.90
19862;DHT22;10093;48.148;8.542;2023-03-01T05:32:24;-2.70;99.90
19862;DHT22;10093;48.148;8.542;2023-03-01T05:34:49;-2.70;99.90
19862;DHT22;10093;48.148;8.542;2023-03-01T05:37:17;-2.70;99.90
19862;DHT22;10093;48.148;8.542;2023-03-01T05:39:43;-2.70;99.90
19862;DHT22;10093;48.148;8.542;2023-03-01T05:42:10;-2.60;99.90
19862;DHT22;10093;48.148;8.542;2023-03-01T05:44:36;-2.50;99.90
19862;DHT22;10093;48.148;8.542;2023-03-01T05:47:01;-2.30;99.90
19862;DHT22;10093;48.148;8.542;2023-03-01T05:49:27;-2.40;99.90
19862;DHT22;10093;48.148;8.542;2023-03-01T05:51:53;-2.30;99.90
19862;DHT22;10093;48.148;8.542;2023-03-01T05:54:20;-2.40;99.90
19862;DHT22;10093;48.148;8.542;2023-03-01T05:56:50;-2.40;99.90
19862;DHT22;10093;48.148;8.542;2023-03-01T05:59:15;-2.50;99.90
19862;DHT22;10093;48.148;8.542;2023-03-01T06:01:42;-2.50;99.90
19862;DHT22;10093;48.148;8.542;2023-03-01T06:04:08;-2.60;99.90
19862;DHT22;10093;48.148;8.542;2023-03-01T06:06:35;-2.50;99.90
19862;DHT22;10093;48.148;8.542;2023-03-01T06:09:03;-2.50;99.90
19862;DHT22;10093;48.148;8.542;2023-03-01T06:11:29;-2.50;99.90
19862;DHT22;10093;48.148;8.542;2023-03-01T06:13:55;-2.60;99.90
19862;DHT22;10093;48.148;8.542;2023-03-01T06:16:20;-2.70;99.90
19862;DHT22;10093;48.148;8.542;2023-03-01T06:18:46;-2.70;99.90
19862;DHT22;10093;48.148;8.542;2023-03-01T06:21:11;-2.60;99.90
19862;DHT22;10093;48.148;8.542;2023-03-01T06:23:37;-2.50;99.90
19862;DHT22;10093;48.148;8.542;2023-03-01T06:26:07;-2.60;99.90
19862;DHT22;10093;48.148;8.542;2023-03-01T06:28:33;-2.60;99.90
19862;DHT22;10093;48.148;8.542;2023-03-01T06:30:59;-2.70;99.90
19862;DHT22;10093;48.148;8.542;2023-03-01T06:33:25;-2.60;99.90
19862;DHT22;10093;48.148;8.542;2023-03-01T06:35:51;-2.60;99.90
19862;DHT22;10093;48.148;8.542;2023-03-01T06:38:19;-2.60;99.90
19862;DHT22;10093;48.148;8.542;2023-03-01T06:40:45;-2.70;99.90
19862;DHT22;10093;48.148;8.542;2023-03-01T06:43:16;-2.70;99.90
19862;DHT22;10093;48.148;8.542;2023-03-01T06:45:42;-2.70;99.90
19862;DHT22;10093;48.148;8.542;2023-03-01T06:48:08;-2.50;99.90
19862;DHT22;10093;48.148;8.542;2023-03-01T06:50:34;-2.50;99.90
19862;DHT22;10093;48.148;8.542;2023-03-01T06:53:00;-2.30;99.90
19862;DHT22;10093;48.148;8.542;2023-03-01T06:55:26;-2.30;99.90
19862;DHT22;10093;48.148;8.542;2023-03-01T06:58:00;-2.20;99.90
19862;DHT22;10093;48.148;8.542;2023-03-01T07:00:26;-2.50;99.90
19862;DHT22;10093;48.148;8.542;2023-03-01T07:02:52;-2.50;99.90
19862;DHT22;10093;48.148;8.542;2023-03-01T07:05:18;-2.40;99.90
19862;DHT22;10093;48.148;8.542;2023-03-01T07:07:44;-2.50;99.90
19862;DHT22;10093;48.148;8.542;2023-03-01T07:10:10;-2.50;99.90
19862;DHT22;10093;48.148;8.542;2023-03-01T07:12:36;-2.30;99.90
19862;DHT22;10093;48.148;8.542;2023-03-01T07:15:02;-2.30;99.90
19862;DHT22;10093;48.148;8.542;2023-03-01T07:17:28;-2.00;99.90
19862;DHT22;10093;48.148;8.542;2023-03-01T07:19:54;-2.00;99.90
19862;DHT22;10093;48.148;8.542;2023-03-01T07:22:19;-2.10;99.90
19862;DHT22;10093;48.148;8.542;2023-03-01T07:24:45;-2.00;99.90
19862;DHT22;10093;48.148;8.542;2023-03-01T07:27:11;-1.90;99.90
19862;DHT22;10093;48.148;8.542;2023-03-01T07:29:36;-1.80;99.90
19862;DHT22;10093;48.148;8.542;2023-03-01T07:32:03;-1.70;99.90
19862;DHT22;10093;48.148;8.542;2023-03-01T07:34:29;-1.60;99.90
19862;DHT22;10093;48.148;8.542;2023-03-01T07:36:55;-1.90;99.90
19862;DHT22;10093;48.148;8.542;2023-03-01T07:39:21;-2.20;99.90
19862;DHT22;10093;48.148;8.542;2023-03-01T07:41:48;-2.20;99.90
19862;DHT22;10093;48.148;8.542;2023-03-01T07:44:14;-1.90;99.90
19862;DHT22;10093;48.148;8.542;2023-03-01T07:46:40;-1.70;99.90
19862;DHT22;10093;48.148;8.542;2023-03-01T07:49:06;-1.80;99.90
19862;DHT22;10093;48.148;8.542;2023-03-01T07:51:32;-1.50;99.90
19862;DHT22;10093;48.148;8.542;2023-03-01T07:53:57;-1.40;99.90
19862;DHT22;10093;48.148;8.542;2023-03-01T07:56:23;-1.50;99.90
19862;DHT22;10093;48.148;8.542;2023-03-01T07:58:48;-1.50;99.90
19862;DHT22;10093;48.148;8.542;2023-03-01T08:01:17;-1.60;99.90
19862;DHT22;10093;48.148;8.542;2023-03-01T08:03:43;-1.60;99.90
19862;DHT22;10093;48.148;8.542;2023-03-01T08:06:10;-1.70;99.90
19862;DHT22;10093;48.148;8.542;2023-03-01T08:08:36;-1.60;99.90
19862;DHT22;10093;48.148;8.542;2023-03-01T08:11:03;-1.40;99.90
19862;DHT22;10093;48.148;8.542;2023-03-01T08:13:30;-1.30;99.90
19862;DHT22;10093;48.148;8.542;2023-03-01T08:16:07;-1.10;99.90
19862;DHT22;10093;48.148;8.542;2023-03-01T08:18:33;-1.10;99.90
19862;DHT22;10093;48.148;8.542;2023-03-01T08:21:11;-1.10;99.90
19862;DHT22;10093;48.148;8.542;2023-03-01T08:23:37;-1.10;99.90
19862;DHT22;10093;48.148;8.542;2023-03-01T08:26:11;-1.00;99.90
19862;DHT22;10093;48.148;8.542;2023-03-01T08:28:37;-1.20;99.90
19862;DHT22;10093;48.148;8.542;2023-03-01T08:31:31;-1.50;99.90
19862;DHT22;10093;48.148;8.542;2023-03-01T08:34:00;-1.60;99.90
19862;DHT22;10093;48.148;8.542;2023-03-01T08:36:35;-1.30;99.90
19862;DHT22;10093;48.148;8.542;2023-03-01T08:39:03;-1.40;99.90
19862;DHT22;10093;48.148;8.542;2023-03-01T08:41:29;-1.30;99.90
19862;DHT22;10093;48.148;8.542;2023-03-01T08:43:55;-1.40;99.90
19862;DHT22;10093;48.148;8.542;2023-03-01T08:46:28;-1.30;99.90
19862;DHT22;10093;48.148;8.542;2023-03-01T08:48:54;-1.20;99.90
19862;DHT22;10093;48.148;8.542;2023-03-01T08:51:22;-1.50;99.90
19862;DHT22;10093;48.148;8.542;2023-03-01T08:53:48;-1.40;99.90
19862;DHT22;10093;48.148;8.542;2023-03-01T08:56:15;-1.20;99.90
19862;DHT22;10093;48.148;8.542;2023-03-01T08:58:44;-1.00;99.90
19862;DHT22;10093;48.148;8.542;2023-03-01T09:01:13;-0.80;99.90
19862;DHT22;10093;48.148;8.542;2023-03-01T09:03:39;-0.40;99.90
19862;DHT22;10093;48.148;8.542;2023-03-01T09:06:05;-0.20;99.90
19862;DHT22;10093;48.148;8.542;2023-03-01T09:08:35;-0.10;99.90
19862;DHT22;10093;48.148;8.542;2023-03-01T09:11:05;0.10;99.90
19862;DHT22;10093;48.148;8.542;2023-03-01T09:13:32;0.60;99.90
19862;DHT22;10093;48.148;8.542;2023-03-01T09:16:03;-0.20;99.90
19862;DHT22;10093;48.148;8.542;2023-03-01T09:18:28;-0.10;99.90
19862;DHT22;10093;48.148;8.542;2023-03-01T09:21:04;0.10;99.90
19862;DHT22;10093;48.148;8.542;2023-03-01T09:23:39;0.60;99.90
19862;DHT22;10093;48.148;8.542;2023-03-01T09:26:07;0.30;99.90
19862;DHT22;10093;48.148;8.542;2023-03-01T09:28:34;-0.10;99.90
19862;DHT22;10093;48.148;8.542;2023-03-01T09:31:01;0.20;99.90
19862;DHT22;10093;48.148;8.542;2023-03-01T09:33:29;0.10;99.90
19862;DHT22;10093;48.148;8.542;2023-03-01T09:36:03;0.50;99.90
19862;DHT22;10093;48.148;8.542;2023-03-01T09:38:29;0.30;99.90
19862;DHT22;10093;48.148;8.542;2023-03-01T09:40:55;-0.10;99.90
19862;DHT22;10093;48.148;8.542;2023-03-01T09:43:27;0.00;99.90
19862;DHT22;10093;48.148;8.542;2023-03-01T09:46:00;-0.30;99.90
19862;DHT22;10093;48.148;8.542;2023-03-01T09:48:37;0.10;99.90
19862;DHT22;10093;48.148;8.542;2023-03-01T09:51:12;0.20;99.90
19862;DHT22;10093;48.148;8.542;2023-03-01T09:53:38;0.10;99.90
19862;DHT22;10093;48.148;8.542;2023-03-01T09:56:12;0.30;99.90
19862;DHT22;10093;48.148;8.542;2023-03-01T09:59:23;0.70;99.90
19862;DHT22;10093;48.148;8.542;2023-03-01T10:01:56;0.20;99.90
19862;DHT22;10093;48.148;8.542;2023-03-01T10:04:37;0.50;99.90
19862;DHT22;10093;48.148;8.542;2023-03-01T10:09:34;0.60;99.90
19862;DHT22;10093;48.148;8.542;2023-03-01T10:12:02;1.00;99.90
19862;DHT22;10093;48.148;8.542;2023-03-01T10:14:55;1.10;99.90
19862;DHT22;10093;48.148;8.542;2023-03-01T10:20:01;1.10;99.90
19862;DHT22;10093;48.148;8.542;2023-03-01T10:22:31;1.50;99.90
19862;DHT22;10093;48.148;8.542;2023-03-01T10:24:59;1.60;99.90
19862;DHT22;10093;48.148;8.542;2023-03-01T10:27:49;0.90;99.90
19862;DHT22;10093;48.148;8.542;2023-03-01T10:32:49;1.80;99.90
19862;DHT22;10093;48.148;8.542;2023-03-01T10:35:23;1.60;99.90
19862;DHT22;10093;48.148;8.542;2023-03-01T10:38:09;1.30;99.90
19862;DHT22;10093;48.148;8.542;2023-03-01T10:40:35;1.80;99.90
19862;DHT22;10093;48.148;8.542;2023-03-01T10:43:05;1.60;99.90
19862;DHT22;10093;48.148;8.542;2023-03-01T10:45:33;1.20;99.90
19862;DHT22;10093;48.148;8.542;2023-03-01T10:48:05;1.30;99.90
19862;DHT22;10093;48.148;8.542;2023-03-01T10:50:31;2.30;99.90
19862;DHT22;10093;48.148;8.542;2023-03-01T10:53:02;3.10;99.90
19862;DHT22;10093;48.148;8.542;2023-03-01T10:55:37;4.10;99.90
19862;DHT22;10093;48.148;8.542;2023-03-01T10:58:20;4.30;99.90
19862;DHT22;10093;48.148;8.542;2023-03-01T11:00:55;4.10;99.90
19862;DHT22;10093;48.148;8.542;2023-03-01T11:03:26;3.40;99.90
19862;DHT22;10093;48.148;8.542;2023-03-01T11:05:54;3.60;99.90
19862;DHT22;10093;48.148;8.542;2023-03-01T11:08:41;2.90;99.90
19862;DHT22;10093;48.148;8.542;2023-03-01T11:13:57;4.20;99.90
19862;DHT22;10093;48.148;8.542;2023-03-01T11:22:02;3.60;99.90
19862;DHT22;10093;48.148;8.542;2023-03-01T11:27:26;3.60;99.90
19862;DHT22;10093;48.148;8.542;2023-03-01T11:30:00;3.60;99.90
19862;DHT22;10093;48.148;8.542;2023-03-01T11:32:34;4.00;99.90
19862;DHT22;10093;48.148;8.542;2023-03-01T11:35:25;4.00;99.90
19862;DHT22;10093;48.148;8.542;2023-03-01T11:38:21;3.50;99.90
19862;DHT22;10093;48.148;8.542;2023-03-01T11:41:21;3.90;99.90
19862;DHT22;10093;48.148;8.542;2023-03-01T11:43:58;4.20;99.90
19862;DHT22;10093;48.148;8.542;2023-03-01T11:54:13;3.50;99.90
19862;DHT22;10093;48.148;8.542;2023-03-01T11:56:50;2.40;99.90
19862;DHT22;10093;48.148;8.542;2023-03-01T11:59:48;2.60;99.90
19862;DHT22;10093;48.148;8.542;2023-03-01T12:24:33;4.60;99.90
19862;DHT22;10093;48.148;8.542;2023-03-01T12:27:17;4.60;99.90
19862;DHT22;10093;48.148;8.542;2023-03-01T12:43:41;5.70;99.90
19862;DHT22;10093;48.148;8.542;2023-03-01T12:51:28;9.30;99.90
19862;DHT22;10093;48.148;8.542;2023-03-01T12:53:57;9.70;99.90
19862;DHT22;10093;48.148;8.542;2023-03-01T12:56:29;8.80;99.90
19862;DHT22;10093;48.148;8.542;2023-03-01T12:59:51;9.60;99.90
19862;DHT22;10093;48.148;8.542;2023-03-01T13:02:23;8.60;99.90
19862;DHT22;10093;48.148;8.542;2023-03-01T13:08:15;8.70;99.90
19862;DHT22;10093;48.148;8.542;2023-03-01T13:10:50;7.20;99.90
19862;DHT22;10093;48.148;8.542;2023-03-01T13:13:22;8.00;99.90
19862;DHT22;10093;48.148;8.542;2023-03-01T13:15:57;7.40;99.90
19862;DHT22;10093;48.148;8.542;2023-03-01T13:20:58;7.50;99.90
19862;DHT22;10093;48.148;8.542;2023-03-01T13:23:30;7.00;99.90
19862;DHT22;10093;48.148;8.542;2023-03-01T13:26:17;7.90;99.90
19862;DHT22;10093;48.148;8.542;2023-03-01T13:28:51;8.10;99.90
19862;DHT22;10093;48.148;8.542;2023-03-01T13:39:04;6.40;99.90
19862;DHT22;10093;48.148;8.542;2023-03-01T13:44:32;8.00;99.90
19862;DHT22;10093;48.148;8.542;2023-03-01T13:47:05;7.20;99.90
19862;DHT22;10093;48.148;8.542;2023-03-01T13:49:58;7.10;99.90
19862;DHT22;10093;48.148;8.542;2023-03-01T13:53:04;6.70;99.90
19862;DHT22;10093;48.148;8.542;2023-03-01T13:55:42;5.80;99.90
19862;DHT22;10093;48.148;8.542;2023-03-01T13:58:25;5.80;99.90
19862;DHT22;10093;48.148;8.542;2023-03-01T14:01:18;6.00;99.90
19862;DHT22;10093;48.148;8.542;2023-03-01T14:03:45;5.50;99.90
19862;DHT22;10093;48.148;8.542;2023-03-01T14:06:17;5.50;99.90
19862;DHT22;10093;48.148;8.542;2023-03-01T14:08:45;5.90;99.90
19862;DHT22;10093;48.148;8.542;2023-03-01T14:19:26;7.80;99.90
19862;DHT22;10093;48.148;8.542;2023-03-01T14:24:31;6.90;99.90
19862;DHT22;10093;48.148;8.542;2023-03-01T14:27:03;7.10;99.90
19862;DHT22;10093;48.148;8.542;2023-03-01T14:29:37;6.60;99.90
19862;DHT22;10093;48.148;8.542;2023-03-01T14:32:12;7.50;99.90
19862;DHT22;10093;48.148;8.542;2023-03-01T14:34:46;6.80;99.90
19862;DHT22;10093;48.148;8.542;2023-03-01T14:37:32;6.60;99.90
19862;DHT22;10093;48.148;8.542;2023-03-01T14:39:58;7.50;99.90
19862;DHT22;10093;48.148;8.542;2023-03-01T14:42:28;8.40;99.90
19862;DHT22;10093;48.148;8.542;2023-03-01T14:44:57;8.30;99.90
19862;DHT22;10093;48.148;8.542;2023-03-01T14:47:30;7.60;99.90
19862;DHT22;10093;48.148;8.542;2023-03-01T14:50:02;7.40;99.90
19862;DHT22;10093;48.148;8.542;2023-03-01T14:52:42;7.30;99.90
19862;DHT22;10093;48.148;8.542;2023-03-01T14:57:54;8.30;99.90
19862;DHT22;10093;48.148;8.542;2023-03-01T15:00:28;8.90;99.90
19862;DHT22;10093;48.148;8.542;2023-03-01T15:02:55;8.70;99.90
19862;DHT22;10093;48.148;8.542;2023-03-01T15:05:29;9.80;99.90
19862;DHT22;10093;48.148;8.542;2023-03-01T15:07:57;8.20;99.90
19862;DHT22;10093;48.148;8.542;2023-03-01T15:10:28;7.90;99.90
19862;DHT22;10093;48.148;8.542;2023-03-01T15:12:53;7.60;99.90
19862;DHT22;10093;48.148;8.542;2023-03-01T15:15:32;7.70;99.90
19862;DHT22;10093;48.148;8.542;2023-03-01T15:18:17;7.00;99.90
19862;DHT22;10093;48.148;8.542;2023-03-01T15:20:43;7.00;99.90
19862;DHT22;10093;48.148;8.542;2023-03-01T15:23:22;7.00;99.90
19862;DHT22;10093;48.148;8.542;2023-03-01T15:25:49;7.00;99.90
19862;DHT22;10093;48.148;8.542;2023-03-01T15:28:27;7.50;99.90
19862;DHT22;10093;48.148;8.542;2023-03-01T15:31:00;7.50;99.90
19862;DHT22;10093;48.148;8.542;2023-03-01T15:33:35;6.80;99.90
19862;DHT22;10093;48.148;8.542;2023-03-01T15:36:31;7.50;99.90
19862;DHT22;10093;48.148;8.542;2023-03-01T15:38:58;6.80;99.90
19862;DHT22;10093;48.148;8.542;2023-03-01T15:41:32;6.10;99.90
19862;DHT22;10093;48.148;8.542;2023-03-01T15:44:17;5.60;99.90
19862;DHT22;10093;48.148;8.542;2023-03-01T15:46:47;6.00;99.90
19862;DHT22;10093;48.148;8.542;2023-03-01T15:51:58;6.10;99.90
19862;DHT22;10093;48.148;8.542;2023-03-01T15:54:25;6.10;99.90
19862;DHT22;10093;48.148;8.542;2023-03-01T15:56:52;6.40;99.90
19862;DHT22;10093;48.148;8.542;2023-03-01T15:59:18;6.60;99.90
19862;DHT22;10093;48.148;8.542;2023-03-01T16:01:45;6.50;99.90
19862;DHT22;10093;48.148;8.542;2023-03-01T16:04:12;6.20;99.90
19862;DHT22;10093;48.148;8.542;2023-03-01T16:06:51;6.20;99.90
19862;DHT22;10093;48.148;8.542;2023-03-01T16:09:24;6.40;99.90
19862;DHT22;10093;48.148;8.542;2023-03-01T16:11:52;5.70;99.90
19862;DHT22;10093;48.148;8.542;2023-03-01T16:14:18;5.50;99.90
19862;DHT22;10093;48.148;8.542;2023-03-01T16:16:45;5.40;99.90
19862;DHT22;10093;48.148;8.542;2023-03-01T16:19:11;5.70;99.90
19862;DHT22;10093;48.148;8.542;2023-03-01T16:21:37;5.50;99.90
19862;DHT22;10093;48.148;8.542;2023-03-01T16:24:03;5.40;99.90
19862;DHT22;10093;48.148;8.542;2023-03-01T16:26:29;5.10;99.90
19862;DHT22;10093;48.148;8.542;2023-03-01T16:28:56;5.00;99.90
19862;DHT22;10093;48.148;8.542;2023-03-01T16:31:22;4.80;99.90
19862;DHT22;10093;48.148;8.542;2023-03-01T16:33:48;4.70;99.90
19862;DHT22;10093;48.148;8.542;2023-03-01T16:36:19;4.50;99.90
19862;DHT22;10093;48.148;8.542;2023-03-01T16:38:45;4.30;99.90
19862;DHT22;10093;48.148;8.542;2023-03-01T16:41:13;4.00;99.90
19862;DHT22;10093;48.148;8.542;2023-03-01T16:43:39;3.90;99.90
19862;DHT22;10093;48.148;8.542;2023-03-01T16:46:18;3.80;99.90
19862;DHT22;10093;48.148;8.542;2023-03-01T16:48:44;3.70;99.90
19862;DHT22;10093;48.148;8.542;2023-03-01T16:51:10;3.50;99.90
19862;DHT22;10093;48.148;8.542;2023-03-01T16:53:36;3.30;99.90
19862;DHT22;10093;48.148;8.542;2023-03-01T16:56:05;3.30;99.90
19862;DHT22;10093;48.148;8.542;2023-03-01T16:58:32;3.10;99.90
19862;DHT22;10093;48.148;8.542;2023-03-01T17:01:07;3.00;99.90
19862;DHT22;10093;48.148;8.542;2023-03-01T17:03:32;2.90;99.90
19862;DHT22;10093;48.148;8.542;2023-03-01T17:06:02;2.80;99.90
19862;DHT22;10093;48.148;8.542;2023-03-01T17:08:28;2.60;99.90
19862;DHT22;10093;48.148;8.542;2023-03-01T17:10:53;2.40;99.90
19862;DHT22;10093;48.148;8.542;2023-03-01T17:13:19;2.20;99.90
19862;DHT22;10093;48.148;8.542;2023-03-01T17:15:44;2.00;99.90
19862;DHT22;10093;48.148;8.542;2023-03-01T17:18:10;1.90;99.90
19862;DHT22;10093;48.148;8.542;2023-03-01T17:20:36;1.80;99.90
19862;DHT22;10093;48.148;8.542;2023-03-01T17:23:02;1.70;99.90
19862;DHT22;10093;48.148;8.542;2023-03-01T17:25:28;1.50;99.90
19862;DHT22;10093;48.148;8.542;2023-03-01T17:27:54;1.50;99.90
19862;DHT22;10093;48.148;8.542;2023-03-01T17:30:20;1.60;99.90
19862;DHT22;10093;48.148;8.542;2023-03-01T17:32:45;1.50;99.90
19862;DHT22;10093;48.148;8.542;2023-03-01T17:35:11;1.40;99.90
19862;DHT22;10093;48.148;8.542;2023-03-01T17:37:38;1.30;99.90
19862;DHT22;10093;48.148;8.542;2023-03-01T17:40:04;1.20;99.90
19862;DHT22;10093;48.148;8.542;2023-03-01T17:42:34;1.30;99.90
19862;DHT22;10093;48.148;8.542;2023-03-01T17:44:59;1.20;99.90